Thomson Majesty — 9HA2188 — position and weather

sailwx.info

Track history (hours):
 
Tides and Currents Weather Stations Pressure Air Temp Water Temp Dewpoint Dewpoint Depression Visibility Wind Speed Wind Dir Waves Ship Positions

Thomson Majesty

Last reported at 2015-Aug-29 14:20 UTC. Time now 2015-Aug-30 20:00 UTC.
Position N 42°08' E 016°47'.

Length 207 m; draft 6.2 m.

Type: Ship. MMSI: 248124000.

Date/timePositionNaut miles runAvg speedWind from/ knotsBaromVisibWave heightAir tempDewpointWater temp
2015-Aug-29 14:20N 42°08' E 016°47'1316.8
2015-Aug-29 13:33N 41°59' E 016°59'2913.5
2015-Aug-29 11:24N 41°38' E 017°27'  
2015-Aug-25 18:07N 37°21' E 023°48'611.6
2015-Aug-25 17:33N 37°28' E 023°46'1211.9
2015-Aug-25 16:33N 37°39' E 023°43'1212.1
2015-Aug-25 15:33N 37°50' E 023°36'6 6.0
2015-Aug-25 14:32N 37°56' E 023°38'0 0.0
2015-Aug-25 13:33N 37°56' E 023°38'0 0.0
2015-Aug-25 12:33N 37°56' E 023°38'0 0.0
2015-Aug-25 11:32N 37°56' E 023°38'0 0.0
2015-Aug-25 10:33N 37°56' E 023°38'0 0.0
2015-Aug-25 09:33N 37°56' E 023°38'0 0.0
2015-Aug-25 08:32N 37°56' E 023°38'0 0.0
2015-Aug-25 07:33N 37°56' E 023°38'0 0.0
2015-Aug-25 06:32N 37°56' E 023°38'0 0.0
2015-Aug-25 05:32N 37°56' E 023°38'0 0.0
2015-Aug-25 04:32N 37°56' E 023°38'0 0.1
2015-Aug-25 03:33N 37°56' E 023°38'6 6.0
2015-Aug-25 02:33N 37°51' E 023°40'1413.8
2015-Aug-25 01:33N 37°39' E 023°49'1514.9
2015-Aug-25 00:33N 37°32' E 024°06'3015.1
2015-Aug-24 22:33N 37°32' E 024°44'1515.1
2015-Aug-24 21:33N 37°31' E 025°03'1515.1
2015-Aug-24 20:34N 37°32' E 025°22'1514.5
2015-Aug-24 19:33N 37°36' E 025°40'15 0.7
2015-Aug-23 20:21N 37°27' E 025°56'810.1
2015-Aug-23 19:34N 37°25' E 025°46'1010.0
2015-Aug-23 18:33N 37°23' E 025°34'1110.6
2015-Aug-23 17:34N 37°21' E 025°21'9 9.1
2015-Aug-23 16:34N 37°23' E 025°10'8 8.1
2015-Aug-23 15:34N 37°27' E 025°19'1 0.7
2015-Aug-23 14:33N 37°27' E 025°19'0 0.0
2015-Aug-23 13:33N 37°27' E 025°19'0 0.0
2015-Aug-23 12:33N 37°27' E 025°19'0 0.0
2015-Aug-23 11:33N 37°27' E 025°19'0 0.0
2015-Aug-23 10:33N 37°27' E 025°19'0 0.0
2015-Aug-23 09:30N 37°27' E 025°19'0 0.0
2015-Aug-23 08:33N 37°27' E 025°19'0 0.0
2015-Aug-23 07:33N 37°27' E 025°19'0 0.0
2015-Aug-23 06:33N 37°27' E 025°19'0 0.0
2015-Aug-23 05:33N 37°27' E 025°19'0 0.0
2015-Aug-23 04:33N 37°27' E 025°19'2 2.0
2015-Aug-23 03:33N 37°28' E 025°17'1514.9
2015-Aug-23 02:33N 37°19' E 025°01'1616.4
2015-Aug-23 01:33N 37°10' E 024°44'  
2015-Aug-20 01:15N 38°59' E 015°16'1014.0
2015-Aug-20 00:32N 39°08' E 015°11'1312.6
2015-Aug-19 23:33N 39°19' E 015°04'5612.8
2015-Aug-19 19:11N 40°10' E 014°33'1312.4
2015-Aug-19 18:06N 40°22' E 014°25'812.7
2015-Aug-19 17:29N 40°29' E 014°21'1011.2
2015-Aug-19 16:34N 40°39' E 014°18'4 3.4
2015-Aug-19 15:31N 40°38' E 014°23'0 0.0
2015-Aug-19 14:31N 40°38' E 014°23'  
Track history (hours):
 
Tides and Currents Weather Stations Pressure Air Temp Water Temp Dewpoint Dewpoint Depression Visibility Wind Speed Wind Dir Waves Ship Positions

Thomson Majesty

Last reported at 2015-Aug-29 14:20 UTC. Time now 2015-Aug-30 20:00 UTC.
Position N 42°08' E 016°47'.

Length 207 m; draft 6.2 m.

Type: Ship. MMSI: 248124000.

Date/timePositionNaut miles runAvg speedWind from/ knotsBaromVisibWave heightAir tempDewpointWater temp
2015-Aug-29 14:20N 42°08' E 016°47'1316.8
2015-Aug-29 13:33N 41°59' E 016°59'2913.5
2015-Aug-29 11:24N 41°38' E 017°27'  
2015-Aug-25 18:07N 37°21' E 023°48'611.6
2015-Aug-25 17:33N 37°28' E 023°46'1211.9
2015-Aug-25 16:33N 37°39' E 023°43'1212.1
2015-Aug-25 15:33N 37°50' E 023°36'6 6.0
2015-Aug-25 14:32N 37°56' E 023°38'0 0.0
2015-Aug-25 13:33N 37°56' E 023°38'0 0.0
2015-Aug-25 12:33N 37°56' E 023°38'0 0.0
2015-Aug-25 11:32N 37°56' E 023°38'0 0.0
2015-Aug-25 10:33N 37°56' E 023°38'0 0.0
2015-Aug-25 09:33N 37°56' E 023°38'0 0.0
2015-Aug-25 08:32N 37°56' E 023°38'0 0.0
2015-Aug-25 07:33N 37°56' E 023°38'0 0.0
2015-Aug-25 06:32N 37°56' E 023°38'0 0.0
2015-Aug-25 05:32N 37°56' E 023°38'0 0.0
2015-Aug-25 04:32N 37°56' E 023°38'0 0.1
2015-Aug-25 03:33N 37°56' E 023°38'6 6.0
2015-Aug-25 02:33N 37°51' E 023°40'1413.8
2015-Aug-25 01:33N 37°39' E 023°49'1514.9
2015-Aug-25 00:33N 37°32' E 024°06'3015.1
2015-Aug-24 22:33N 37°32' E 024°44'1515.1
2015-Aug-24 21:33N 37°31' E 025°03'1515.1
2015-Aug-24 20:34N 37°32' E 025°22'1514.5
2015-Aug-24 19:33N 37°36' E 025°40'15 0.7
2015-Aug-23 20:21N 37°27' E 025°56'810.1
2015-Aug-23 19:34N 37°25' E 025°46'1010.0
2015-Aug-23 18:33N 37°23' E 025°34'1110.6
2015-Aug-23 17:34N 37°21' E 025°21'9 9.1
2015-Aug-23 16:34N 37°23' E 025°10'8 8.1
2015-Aug-23 15:34N 37°27' E 025°19'1 0.7
2015-Aug-23 14:33N 37°27' E 025°19'0 0.0
2015-Aug-23 13:33N 37°27' E 025°19'0 0.0
2015-Aug-23 12:33N 37°27' E 025°19'0 0.0
2015-Aug-23 11:33N 37°27' E 025°19'0 0.0
2015-Aug-23 10:33N 37°27' E 025°19'0 0.0
2015-Aug-23 09:30N 37°27' E 025°19'0 0.0
2015-Aug-23 08:33N 37°27' E 025°19'0 0.0
2015-Aug-23 07:33N 37°27' E 025°19'0 0.0
2015-Aug-23 06:33N 37°27' E 025°19'0 0.0
2015-Aug-23 05:33N 37°27' E 025°19'0 0.0
2015-Aug-23 04:33N 37°27' E 025°19'2 2.0
2015-Aug-23 03:33N 37°28' E 025°17'1514.9
2015-Aug-23 02:33N 37°19' E 025°01'1616.4
2015-Aug-23 01:33N 37°10' E 024°44'  
2015-Aug-20 01:15N 38°59' E 015°16'1014.0
2015-Aug-20 00:32N 39°08' E 015°11'1312.6
2015-Aug-19 23:33N 39°19' E 015°04'5612.8
2015-Aug-19 19:11N 40°10' E 014°33'1312.4
2015-Aug-19 18:06N 40°22' E 014°25'812.7
2015-Aug-19 17:29N 40°29' E 014°21'1011.2
2015-Aug-19 16:34N 40°39' E 014°18'4 3.4
2015-Aug-19 15:31N 40°38' E 014°23'0 0.0
2015-Aug-19 14:31N 40°38' E 014°23'  

Dump ship's entire track history